Time;durP1;ratioP1;P1;durP2;ratioP2;P2;SDS_P1;SDS_P2;PMS_P1;PMS_P2;Temp;Humidity;BMP_temperature;BMP_pressure;BME280_temperature;BME280_humidity;BME280_pressure;Samples;Min_cycle;Max_cycle;Signal;HPM_P1;HPM_P2
2022/06/29 00:01:06;;;;;;;6.95;3.83;;;;;;;;;;7326736;19;154085;-17
2022/06/29 00:03:38;;;;;;;8.15;3.80;;;;;;;;;;7327339;19;154162;-16
2022/06/29 00:06:12;;;;;;;6.93;3.55;;;;;;;;;;7326294;19;161851;-16
2022/06/29 00:08:43;;;;;;;8.18;3.95;;;;;;;;;;7325927;19;162481;-18
2022/06/29 00:11:15;;;;;;;8.00;4.18;;;;;;;;;;7333163;19;154298;-18
2022/06/29 00:13:47;;;;;;;6.28;3.13;;;;;;;;;;7333847;19;153545;-17
2022/06/29 00:16:19;;;;;;;7.75;3.55;;;;;;;;;;7332644;19;161958;-17
2022/06/29 00:18:50;;;;;;;6.40;3.08;;;;;;;;;;7333569;19;162281;-18
2022/06/29 00:21:24;;;;;;;7.47;3.17;;;;;;;;;;7333833;19;154051;-25
2022/06/29 00:23:56;;;;;;;6.03;3.88;;;;;;;;;;7332707;19;153588;-17
2022/06/29 00:26:27;;;;;;;5.30;3.20;;;;;;;;;;7333100;19;161762;-16
2022/06/29 00:28:59;;;;;;;4.28;2.72;;;;;;;;;;7331510;19;162570;-17
2022/06/29 00:31:30;;;;;;;6.57;2.92;;;;;;;;;;7333140;19;154035;-16
2022/06/29 00:34:02;;;;;;;7.53;3.53;;;;;;;;;;7331298;19;153532;-16
2022/06/29 00:36:35;;;;;;;6.97;3.55;;;;;;;;;;7332542;19;162031;-18
2022/06/29 00:39:07;;;;;;;6.75;3.50;;;;;;;;;;7332415;19;162571;-16
2022/06/29 00:41:40;;;;;;;7.18;3.90;;;;;;;;;;7332682;19;154010;-16
2022/06/29 00:44:15;;;;;;;5.05;3.20;;;;;;;;;;7332679;19;153612;-24
2022/06/29 00:46:50;;;;;;;4.93;2.88;;;;;;;;;;7332267;19;161832;-16
2022/06/29 00:49:23;;;;;;;7.95;3.00;;;;;;;;;;7330817;19;162428;-16
2022/06/29 00:52:04;;;;;;;7.15;3.30;;;;;;;;;;7332547;19;154105;-16
2022/06/29 00:54:47;;;;;;;5.95;2.97;;;;;;;;;;7332852;19;153211;-16
2022/06/29 00:57:21;;;;;;;5.88;3.13;;;;;;;;;;7335319;19;161823;-16
2022/06/29 00:59:54;;;;;;;7.70;2.92;;;;;;;;;;7335433;19;162619;-16
2022/06/29 01:02:28;;;;;;;6.68;3.20;;;;;;;;;;7336031;19;153967;-16
2022/06/29 01:05:00;;;;;;;6.22;3.28;;;;;;;;;;7334465;19;153538;-16
2022/06/29 01:07:35;;;;;;;4.22;3.08;;;;;;;;;;7334700;19;162170;-16
2022/06/29 01:10:07;;;;;;;6.35;3.00;;;;;;;;;;7334729;19;162363;-16
2022/06/29 01:12:38;;;;;;;5.10;2.60;;;;;;;;;;7334933;19;154026;-16
2022/06/29 01:15:11;;;;;;;6.53;3.42;;;;;;;;;;7333117;19;153634;-16
2022/06/29 01:17:42;;;;;;;5.57;3.10;;;;;;;;;;7333602;19;161909;-16
2022/06/29 01:20:15;;;;;;;7.30;3.72;;;;;;;;;;7332864;19;162424;-16
2022/06/29 01:22:51;;;;;;;8.02;3.70;;;;;;;;;;7333891;19;154031;-16
2022/06/29 01:25:22;;;;;;;5.88;3.78;;;;;;;;;;7334902;19;153631;-16
2022/06/29 01:27:53;;;;;;;5.65;3.38;;;;;;;;;;7334335;19;162531;-16
2022/06/29 01:30:24;;;;;;;6.45;3.83;;;;;;;;;;7333838;19;162435;-16
2022/06/29 01:32:55;;;;;;;6.38;3.30;;;;;;;;;;7333469;19;154078;-16
2022/06/29 01:35:27;;;;;;;7.40;3.65;;;;;;;;;;7333683;19;153654;-16
2022/06/29 01:38:04;;;;;;;5.68;3.28;;;;;;;;;;7332693;19;133763;-16
2022/06/29 01:40:36;;;;;;;7.93;3.72;;;;;;;;;;7333541;19;162650;-16
2022/06/29 01:43:07;;;;;;;4.07;3.25;;;;;;;;;;7334598;19;154365;-25
2022/06/29 01:45:38;;;;;;;5.85;3.30;;;;;;;;;;7334038;19;153933;-16
2022/06/29 01:48:09;;;;;;;4.72;3.00;;;;;;;;;;7333489;19;162178;-16
2022/06/29 01:50:41;;;;;;;5.65;3.30;;;;;;;;;;7333807;19;162357;-16
2022/06/29 01:53:15;;;;;;;5.15;2.95;;;;;;;;;;7334967;19;154393;-16
2022/06/29 01:55:46;;;;;;;6.93;3.63;;;;;;;;;;7332297;19;153667;-16
2022/06/29 01:58:17;;;;;;;5.97;3.75;;;;;;;;;;7333505;19;161757;-16
2022/06/29 02:00:48;;;;;;;5.85;2.92;;;;;;;;;;7333471;19;162577;-16
2022/06/29 02:03:20;;;;;;;6.95;3.15;;;;;;;;;;7333343;19;154234;-16
2022/06/29 02:05:51;;;;;;;5.85;2.83;;;;;;;;;;7334016;19;153509;-16
2022/06/29 02:08:24;;;;;;;5.43;3.08;;;;;;;;;;7332725;19;161908;-16
2022/06/29 02:10:56;;;;;;;6.97;3.10;;;;;;;;;;7331507;19;162620;-16
2022/06/29 02:13:27;;;;;;;6.15;3.05;;;;;;;;;;7333695;19;153991;-16
2022/06/29 02:15:59;;;;;;;6.15;3.22;;;;;;;;;;7331943;19;153514;-16
2022/06/29 02:18:30;;;;;;;5.90;3.22;;;;;;;;;;7332759;19;162075;-16
2022/06/29 02:21:01;;;;;;;5.65;3.40;;;;;;;;;;7333631;19;162457;-16
2022/06/29 02:23:35;;;;;;;6.10;3.30;;;;;;;;;;7329983;19;154318;-16
2022/06/29 02:26:06;;;;;;;5.18;3.20;;;;;;;;;;7333459;19;153572;-16
2022/06/29 02:28:37;;;;;;;6.03;3.17;;;;;;;;;;7329591;19;161741;-16
2022/06/29 02:36:36;;;;;;;6.40;3.45;;;;;;;;;;7328041;19;153354;-16
2022/06/29 02:39:09;;;;;;;3.92;2.78;;;;;;;;;;7329343;19;161994;-16
2022/06/29 02:41:41;;;;;;;4.50;3.15;;;;;;;;;;7329046;19;162149;-16
2022/06/29 02:44:12;;;;;;;6.35;3.55;;;;;;;;;;7329471;19;154006;-17
2022/06/29 02:46:43;;;;;;;7.00;2.92;;;;;;;;;;7329284;19;153654;-16
2022/06/29 02:49:14;;;;;;;5.10;2.80;;;;;;;;;;7329092;19;162312;-16
2022/06/29 02:51:45;;;;;;;5.95;3.22;;;;;;;;;;7328984;19;162343;-16
2022/06/29 02:54:19;;;;;;;5.05;2.78;;;;;;;;;;7329990;19;153961;-16
2022/06/29 02:56:50;;;;;;;8.68;3.67;;;;;;;;;;7327286;19;153756;-16
2022/06/29 02:59:22;;;;;;;4.95;2.90;;;;;;;;;;7328552;19;162142;-16
2022/06/29 03:01:53;;;;;;;5.93;3.63;;;;;;;;;;7328471;19;162523;-16
2022/06/29 03:04:24;;;;;;;6.13;2.90;;;;;;;;;;7328941;19;154119;-16
2022/06/29 03:06:55;;;;;;;5.85;2.72;;;;;;;;;;7329539;19;153801;-16
2022/06/29 03:09:29;;;;;;;5.25;3.03;;;;;;;;;;7328253;19;161652;-16
2022/06/29 03:12:00;;;;;;;6.63;3.70;;;;;;;;;;7327964;19;162499;-16
2022/06/29 03:14:31;;;;;;;5.10;2.50;;;;;;;;;;7328519;19;154183;-16
2022/06/29 03:17:02;;;;;;;5.65;2.75;;;;;;;;;;7325476;19;153571;-16
2022/06/29 03:19:33;;;;;;;3.40;2.22;;;;;;;;;;7328025;19;161962;-16
2022/06/29 03:22:05;;;;;;;3.88;2.70;;;;;;;;;;7327788;19;162613;-16
2022/06/29 03:24:39;;;;;;;4.07;2.50;;;;;;;;;;7328275;19;154063;-16
2022/06/29 03:27:10;;;;;;;4.15;2.92;;;;;;;;;;7327938;19;153634;-16
2022/06/29 03:29:41;;;;;;;4.22;2.15;;;;;;;;;;7327616;19;161830;-16
2022/06/29 03:32:13;;;;;;;5.28;2.50;;;;;;;;;;7327519;19;162439;-16
2022/06/29 03:34:45;;;;;;;5.40;2.53;;;;;;;;;;7324061;19;154181;-17
2022/06/29 03:37:16;;;;;;;4.05;2.97;;;;;;;;;;7326283;19;153583;-16
2022/06/29 03:39:49;;;;;;;6.32;2.90;;;;;;;;;;7326383;19;162619;-16
2022/06/29 03:42:21;;;;;;;4.32;2.10;;;;;;;;;;7327320;19;162361;-16
2022/06/29 03:44:54;;;;;;;5.93;2.70;;;;;;;;;;7330599;19;154050;-16
2022/06/29 03:47:25;;;;;;;4.03;2.13;;;;;;;;;;7333342;19;153540;-16
2022/06/29 03:49:56;;;;;;;6.40;2.10;;;;;;;;;;7334139;19;161918;-16
2022/06/29 03:52:27;;;;;;;6.25;2.20;;;;;;;;;;7333904;19;162541;-16
2022/06/29 03:55:01;;;;;;;3.33;2.00;;;;;;;;;;7335190;19;154234;-16
2022/06/29 03:57:33;;;;;;;3.35;1.60;;;;;;;;;;7332819;19;153590;-16
2022/06/29 04:00:05;;;;;;;3.83;1.92;;;;;;;;;;7332605;19;162051;-16
2022/06/29 04:02:46;;;;;;;3.50;2.17;;;;;;;;;;7332336;19;162411;-16
2022/06/29 04:05:17;;;;;;;2.67;1.75;;;;;;;;;;7333847;19;154302;-16
2022/06/29 04:07:48;;;;;;;3.72;1.98;;;;;;;;;;7333664;19;153644;-16
2022/06/29 04:10:22;;;;;;;3.53;1.70;;;;;;;;;;7333301;19;162134;-16
2022/06/29 04:12:53;;;;;;;4.35;1.83;;;;;;;;;;7333400;19;162627;-16
2022/06/29 04:15:25;;;;;;;5.15;2.03;;;;;;;;;;7333342;19;154223;-16
2022/06/29 04:17:56;;;;;;;2.63;1.55;;;;;;;;;;7331123;19;153853;-15
2022/06/29 04:23:11;;;;;;;3.30;1.75;;;;;;;;;;7332972;19;162931;-16
2022/06/29 04:25:45;;;;;;;3.42;2.05;;;;;;;;;;7336850;19;154098;-16
2022/06/29 04:28:17;;;;;;;6.20;2.35;;;;;;;;;;7333026;19;153627;-16
2022/06/29 04:30:49;;;;;;;3.38;2.00;;;;;;;;;;7332506;19;161933;-16
2022/06/29 04:33:20;;;;;;;4.32;2.05;;;;;;;;;;7331535;19;162907;-17
2022/06/29 04:35:51;;;;;;;5.25;2.22;;;;;;;;;;7331927;19;154186;-17
2022/06/29 04:38:22;;;;;;;5.30;1.90;;;;;;;;;;7331055;19;153708;-17
2022/06/29 04:40:56;;;;;;;4.60;2.08;;;;;;;;;;7332559;19;161916;-17
2022/06/29 04:43:27;;;;;;;4.45;2.35;;;;;;;;;;7332521;19;162631;-17
2022/06/29 04:48:42;;;;;;;4.03;2.00;;;;;;;;;;7332474;19;153588;-17
2022/06/29 04:51:13;;;;;;;5.50;2.45;;;;;;;;;;7331660;19;161913;-17
2022/06/29 04:53:44;;;;;;;4.65;2.78;;;;;;;;;;7331767;19;162397;-17
2022/06/29 04:56:19;;;;;;;7.95;2.75;;;;;;;;;;7336550;19;155736;-17
2022/06/29 04:58:51;;;;;;;4.78;2.83;;;;;;;;;;7330163;19;154186;-17
2022/06/29 05:01:22;;;;;;;5.63;3.00;;;;;;;;;;7331653;19;162112;-17
2022/06/29 05:03:55;;;;;;;6.38;3.28;;;;;;;;;;7331578;19;162469;-17
2022/06/29 05:06:26;;;;;;;7.10;3.58;;;;;;;;;;7332040;19;154223;-14
2022/06/29 05:08:57;;;;;;;5.20;3.58;;;;;;;;;;7330664;19;153532;-17
2022/06/29 05:11:31;;;;;;;7.18;3.38;;;;;;;;;;7336361;19;162142;-17
2022/06/29 05:14:02;;;;;;;8.85;3.90;;;;;;;;;;7331459;19;162324;-17
2022/06/29 05:16:33;;;;;;;6.43;3.28;;;;;;;;;;7331852;19;154034;-17
2022/06/29 05:19:05;;;;;;;6.53;3.35;;;;;;;;;;7329372;19;153655;-17
2022/06/29 05:21:36;;;;;;;6.45;3.50;;;;;;;;;;7331383;19;161951;-17
2022/06/29 05:24:08;;;;;;;6.38;3.35;;;;;;;;;;7331632;19;162476;-17
2022/06/29 05:26:43;;;;;;;6.93;3.90;;;;;;;;;;7330310;19;154104;-17
2022/06/29 05:29:14;;;;;;;8.27;4.45;;;;;;;;;;7331244;19;153976;-16
2022/06/29 05:31:45;;;;;;;7.45;3.28;;;;;;;;;;7329904;19;162006;-16
2022/06/29 05:34:16;;;;;;;6.60;3.58;;;;;;;;;;7327371;19;162587;-17
2022/06/29 05:36:47;;;;;;;6.75;3.40;;;;;;;;;;7331213;19;154062;-17
2022/06/29 05:39:18;;;;;;;5.53;3.05;;;;;;;;;;7329044;19;153559;-17
2022/06/29 05:41:52;;;;;;;4.95;3.03;;;;;;;;;;7330646;19;162140;-17
2022/06/29 05:44:23;;;;;;;4.20;2.67;;;;;;;;;;7330637;19;162323;-18
2022/06/29 05:46:54;;;;;;;5.93;3.20;;;;;;;;;;7330927;19;154284;-17
2022/06/29 05:49:26;;;;;;;5.88;3.15;;;;;;;;;;7331013;19;153574;-17
2022/06/29 05:51:57;;;;;;;5.47;2.85;;;;;;;;;;7330538;19;161937;-17
2022/06/29 05:54:29;;;;;;;6.35;2.80;;;;;;;;;;7329248;19;162550;-17
2022/06/29 05:57:03;;;;;;;5.20;2.97;;;;;;;;;;7331077;19;154148;-17
2022/06/29 05:59:34;;;;;;;3.33;2.95;;;;;;;;;;7328263;19;153569;-16
2022/06/29 06:02:06;;;;;;;5.32;2.95;;;;;;;;;;7329573;19;161895;-16
2022/06/29 06:04:37;;;;;;;6.35;3.35;;;;;;;;;;7329065;19;162499;-16
2022/06/29 06:07:08;;;;;;;6.60;3.00;;;;;;;;;;7328633;19;154309;-16
2022/06/29 06:09:39;;;;;;;10.88;3.30;;;;;;;;;;7330619;19;153503;-16
2022/06/29 06:12:14;;;;;;;9.77;3.47;;;;;;;;;;7330195;19;161743;-16
2022/06/29 06:14:45;;;;;;;4.70;3.00;;;;;;;;;;7329935;19;162458;-16
2022/06/29 06:17:16;;;;;;;8.63;3.63;;;;;;;;;;7330064;19;154074;-16
2022/06/29 06:19:47;;;;;;;7.03;3.28;;;;;;;;;;7327712;19;153581;-16
2022/06/29 06:22:18;;;;;;;8.93;3.42;;;;;;;;;;7329868;19;162053;-16
2022/06/29 06:24:50;;;;;;;7.63;3.60;;;;;;;;;;7333546;19;162617;-16
2022/06/29 06:27:24;;;;;;;6.70;3.05;;;;;;;;;;7329867;19;154135;-16
2022/06/29 06:29:55;;;;;;;5.88;3.33;;;;;;;;;;7329824;19;153894;-16
2022/06/29 06:32:26;;;;;;;6.90;3.10;;;;;;;;;;7328693;19;161664;-16
2022/06/29 06:34:57;;;;;;;10.23;3.25;;;;;;;;;;7329199;19;162569;-16
2022/06/29 06:37:28;;;;;;;6.07;3.20;;;;;;;;;;7329945;19;154074;-16
2022/06/29 06:42:45;;;;;;;8.82;3.45;;;;;;;;;;7327082;19;162114;-16
2022/06/29 06:45:17;;;;;;;10.00;3.20;;;;;;;;;;7329106;19;162857;-16
2022/06/29 06:47:48;;;;;;;8.90;3.60;;;;;;;;;;7329417;19;153776;-16
2022/06/29 06:50:19;;;;;;;6.00;3.00;;;;;;;;;;7329271;19;153532;-16
2022/06/29 06:52:51;;;;;;;6.85;3.78;;;;;;;;;;7328821;19;161818;-16
2022/06/29 06:55:22;;;;;;;5.60;3.00;;;;;;;;;;7331468;19;162665;-16
2022/06/29 06:57:56;;;;;;;6.63;3.20;;;;;;;;;;7328896;19;154072;-16
2022/06/29 07:00:27;;;;;;;5.55;3.13;;;;;;;;;;7326373;19;153559;-16
2022/06/29 07:02:58;;;;;;;9.23;3.38;;;;;;;;;;7328315;19;161807;-16
2022/06/29 07:05:30;;;;;;;6.40;3.53;;;;;;;;;;7328296;19;162338;-16
2022/06/29 07:08:01;;;;;;;6.15;3.30;;;;;;;;;;7328609;19;154099;-16
2022/06/29 07:10:32;;;;;;;7.05;3.22;;;;;;;;;;7328484;19;153670;-16
2022/06/29 07:13:06;;;;;;;6.28;3.10;;;;;;;;;;7327867;19;162025;-16
2022/06/29 07:15:37;;;;;;;5.28;3.17;;;;;;;;;;7329890;19;162586;-16
2022/06/29 07:18:08;;;;;;;5.57;2.97;;;;;;;;;;7329137;19;154185;-16
2022/06/29 07:20:40;;;;;;;5.60;3.15;;;;;;;;;;7332933;19;153695;-16
2022/06/29 07:23:11;;;;;;;6.32;3.03;;;;;;;;;;7334710;19;162326;-16
2022/06/29 07:25:42;;;;;;;7.07;2.58;;;;;;;;;;7336905;19;162365;-16
2022/06/29 07:28:16;;;;;;;6.93;2.65;;;;;;;;;;7334751;19;154115;-16
2022/06/29 07:30:47;;;;;;;5.82;3.13;;;;;;;;;;7334825;19;153610;-16
2022/06/29 07:33:18;;;;;;;5.40;2.70;;;;;;;;;;7333342;19;161834;-16
2022/06/29 07:35:49;;;;;;;8.13;3.13;;;;;;;;;;7334095;19;162530;-15
2022/06/29 07:38:21;;;;;;;7.65;3.22;;;;;;;;;;7334595;19;154362;-15
2022/06/29 07:40:52;;;;;;;7.40;2.65;;;;;;;;;;7332244;19;153534;-15
2022/06/29 07:43:26;;;;;;;7.47;2.92;;;;;;;;;;7333816;19;161837;-18
2022/06/29 07:45:59;;;;;;;5.07;2.33;;;;;;;;;;7333865;19;162366;-16
2022/06/29 07:48:30;;;;;;;;;;;;;;;;;;7334684;19;154049;-15
2022/06/29 07:51:01;;;;;;;5.57;2.55;;;;;;;;;;7334155;19;153580;-15
2022/06/29 07:53:33;;;;;;;8.45;2.95;;;;;;;;;;7332894;19;161868;-15
2022/06/29 07:56:04;;;;;;;5.07;2.40;;;;;;;;;;7337704;19;162585;-15
2022/06/29 07:58:38;;;;;;;7.53;2.78;;;;;;;;;;7333709;19;154059;-16
2022/06/29 08:01:09;;;;;;;5.20;2.45;;;;;;;;;;7331554;19;153730;-16
2022/06/29 08:03:40;;;;;;;4.22;2.50;;;;;;;;;;7332001;19;161820;-17
2022/06/29 08:06:12;;;;;;;6.93;2.58;;;;;;;;;;7333309;19;162400;-16
2022/06/29 08:08:43;;;;;;;8.70;2.72;;;;;;;;;;7333516;19;154075;-16
2022/06/29 08:11:15;;;;;;;4.30;2.47;;;;;;;;;;7333370;19;153526;-16
2022/06/29 08:13:55;;;;;;;6.25;2.28;;;;;;;;;;7332934;19;161939;-16
2022/06/29 08:16:26;;;;;;;4.40;2.20;;;;;;;;;;7334763;19;163658;-16
2022/06/29 08:18:58;;;;;;;4.80;2.55;;;;;;;;;;7333502;19;154246;-16
2022/06/29 08:21:29;;;;;;;5.30;2.38;;;;;;;;;;7331040;19;153368;-16
2022/06/29 08:24:00;;;;;;;4.55;2.40;;;;;;;;;;7332980;19;161741;-16
2022/06/29 08:26:31;;;;;;;4.13;2.08;;;;;;;;;;7332486;19;162336;-16
2022/06/29 08:29:17;;;;;;;7.07;2.50;;;;;;;;;;7333242;19;154114;-17
2022/06/29 08:31:48;;;;;;;4.05;2.20;;;;;;;;;;7330799;19;153688;-16
2022/06/29 08:34:19;;;;;;;3.63;2.20;;;;;;;;;;7330529;19;162143;-16
2022/06/29 08:36:50;;;;;;;4.40;2.30;;;;;;;;;;7331164;19;162544;-16
2022/06/29 08:39:21;;;;;;;4.90;2.40;;;;;;;;;;7332797;19;154344;-16
2022/06/29 08:41:55;;;;;;;3.50;2.10;;;;;;;;;;7330365;19;153696;-16
2022/06/29 08:44:29;;;;;;;4.50;2.40;;;;;;;;;;7332231;19;161821;-16
2022/06/29 08:47:00;;;;;;;3.15;1.83;;;;;;;;;;7334108;19;162794;-16
2022/06/29 08:49:32;;;;;;;5.70;2.35;;;;;;;;;;7335358;19;154016;-16
2022/06/29 08:52:07;;;;;;;8.57;2.50;;;;;;;;;;7335237;19;153574;-16
2022/06/29 08:54:40;;;;;;;4.50;2.00;;;;;;;;;;7334539;19;161729;-16
2022/06/29 08:57:11;;;;;;;;;;;;;;;;;;7334430;19;162569;-16
2022/06/29 08:59:46;;;;;;;4.43;2.38;;;;;;;;;;7334185;19;154259;-16
2022/06/29 09:02:29;;;;;;;4.25;2.00;;;;;;;;;;7335084;19;153667;-16
2022/06/29 09:05:00;;;;;;;3.97;2.30;;;;;;;;;;7335462;19;162031;-16
2022/06/29 09:07:32;;;;;;;6.53;2.47;;;;;;;;;;7335189;19;162414;-16
2022/06/29 09:10:06;;;;;;;3.85;1.77;;;;;;;;;;7334100;19;154368;-16
2022/06/29 09:12:38;;;;;;;4.47;2.60;;;;;;;;;;7335194;19;153504;-16
2022/06/29 09:15:15;;;;;;;3.00;1.97;;;;;;;;;;7334625;19;161936;-16
2022/06/29 09:17:46;;;;;;;3.45;1.95;;;;;;;;;;7334062;19;162457;-16
2022/06/29 09:20:19;;;;;;;4.22;2.05;;;;;;;;;;7334461;19;154210;-16
2022/06/29 09:23:07;;;;;;;4.10;2.10;;;;;;;;;;7335135;19;153569;-16
2022/06/29 09:25:39;;;;;;;3.15;2.10;;;;;;;;;;7334412;19;161774;-16
2022/06/29 09:28:33;;;;;;;4.03;2.17;;;;;;;;;;7335073;19;162905;-16
2022/06/29 09:31:09;;;;;;;6.22;2.75;;;;;;;;;;7331088;19;154861;-16
2022/06/29 09:33:40;;;;;;;13.98;3.17;;;;;;;;;;7331448;19;153516;-17
2022/06/29 09:36:14;;;;;;;10.55;3.28;;;;;;;;;;7335229;19;161793;-16
2022/06/29 09:38:46;;;;;;;9.73;2.85;;;;;;;;;;7330714;19;162566;-17
2022/06/29 09:41:17;;;;;;;8.77;3.20;;;;;;;;;;7327726;19;154241;-17
2022/06/29 09:43:50;;;;;;;13.77;4.00;;;;;;;;;;7329601;19;153532;-17
2022/06/29 09:46:25;;;;;;;14.98;3.75;;;;;;;;;;7330457;19;162142;-17
2022/06/29 09:48:56;;;;;;;11.73;3.65;;;;;;;;;;7330426;19;162414;-17
2022/06/29 09:51:33;;;;;;;10.93;3.33;;;;;;;;;;7330598;19;154238;-17
2022/06/29 09:54:08;;;;;;;12.90;3.70;;;;;;;;;;7330844;19;153835;-17
2022/06/29 09:56:48;;;;;;;11.07;3.67;;;;;;;;;;7333334;19;161748;-16
2022/06/29 10:02:34;;;;;;;10.35;3.53;;;;;;;;;;7330167;19;161917;-16
2022/06/29 10:05:06;;;;;;;11.85;3.47;;;;;;;;;;7330182;19;153731;-16
2022/06/29 10:07:40;;;;;;;9.00;3.58;;;;;;;;;;7329866;19;162202;-16
2022/06/29 10:10:13;;;;;;;11.23;3.92;;;;;;;;;;7330745;19;162545;-17
2022/06/29 10:16:17;;;;;;;11.10;3.85;;;;;;;;;;7331966;19;154985;-16
2022/06/29 10:19:12;;;;;;;10.68;3.85;;;;;;;;;;7330526;19;161838;-16
2022/06/29 10:21:44;;;;;;;10.63;3.80;;;;;;;;;;7328190;19;162818;-16
2022/06/29 10:24:18;;;;;;;9.27;3.03;;;;;;;;;;7332556;19;153820;-15
2022/06/29 10:26:50;;;;;;;10.65;3.40;;;;;;;;;;7329569;19;153778;-16
2022/06/29 10:29:35;;;;;;;12.80;3.28;;;;;;;;;;7329285;19;161853;-16
2022/06/29 10:32:19;;;;;;;10.77;2.75;;;;;;;;;;7329255;19;162619;-16
2022/06/29 10:35:10;;;;;;;7.70;2.92;;;;;;;;;;7326609;19;153983;-15
2022/06/29 10:37:53;;;;;;;10.98;2.53;;;;;;;;;;7329325;19;153282;-16
2022/06/29 10:40:30;;;;;;;11.93;3.30;;;;;;;;;;7329114;19;161949;-16
2022/06/29 10:43:20;;;;;;;6.47;3.10;;;;;;;;;;7329117;19;162504;-16
2022/06/29 10:45:57;;;;;;;11.15;2.42;;;;;;;;;;7333434;19;154111;-16
2022/06/29 10:48:31;;;;;;;8.13;2.33;;;;;;;;;;7329129;19;153578;-18
2022/06/29 10:51:06;;;;;;;9.57;2.95;;;;;;;;;;7331044;19;161742;-17
2022/06/29 10:53:37;;;;;;;9.95;3.10;;;;;;;;;;7327757;19;162384;-17
2022/06/29 10:56:11;;;;;;;10.35;3.28;;;;;;;;;;7331882;19;154314;-17
2022/06/29 10:58:43;;;;;;;9.43;2.83;;;;;;;;;;7328911;19;153538;-17
2022/06/29 11:01:14;;;;;;;9.65;3.42;;;;;;;;;;7331294;19;162135;-16
2022/06/29 11:03:45;;;;;;;11.48;2.95;;;;;;;;;;7330247;19;162529;-17
2022/06/29 11:12:07;;;;;;;8.43;2.65;;;;;;;;;;7327835;19;161894;-17
2022/06/29 11:17:47;;;;;;;6.70;2.47;;;;;;;;;;7328134;19;154250;-17
2022/06/29 11:20:20;;;;;;;6.25;2.60;;;;;;;;;;7330810;19;153522;-17
2022/06/29 11:22:56;;;;;;;5.95;2.45;;;;;;;;;;7329460;19;161899;-16
2022/06/29 11:25:28;;;;;;;5.25;2.30;;;;;;;;;;7330087;19;162403;-17
2022/06/29 11:27:59;;;;;;;6.50;2.70;;;;;;;;;;7329054;19;154398;-16
2022/06/29 11:30:31;;;;;;;4.25;2.70;;;;;;;;;;7327720;19;153466;-16
2022/06/29 11:33:10;;;;;;;7.93;2.67;;;;;;;;;;7326647;19;161862;-16
2022/06/29 11:35:43;;;;;;;6.97;2.38;;;;;;;;;;7326255;19;162763;-16
2022/06/29 11:38:19;;;;;;;9.38;3.03;;;;;;;;;;7327672;19;154138;-16
2022/06/29 11:40:54;;;;;;;5.72;2.83;;;;;;;;;;7330044;19;153540;-17
2022/06/29 11:43:40;;;;;;;13.48;2.97;;;;;;;;;;7324712;19;161762;-17
2022/06/29 11:46:21;;;;;;;16.90;6.55;;;;;;;;;;7328346;19;162259;-17
2022/06/29 11:51:39;;;;;;;9.52;3.55;;;;;;;;;;7325225;19;153745;-17
2022/06/29 11:54:13;;;;;;;14.00;3.72;;;;;;;;;;7327540;19;161870;-18
2022/06/29 11:56:46;;;;;;;18.05;4.22;;;;;;;;;;7326832;19;162578;-17
2022/06/29 11:59:18;;;;;;;;;;;;;;;;;;7327925;19;154288;-17
2022/06/29 12:01:59;;;;;;;11.45;3.50;;;;;;;;;;7326911;19;153542;-17
2022/06/29 12:04:32;;;;;;;18.30;3.92;;;;;;;;;;7326506;19;161793;-17
2022/06/29 12:07:08;;;;;;;16.90;4.10;;;;;;;;;;7333041;19;162647;-17
2022/06/29 12:09:45;;;;;;;18.15;4.88;;;;;;;;;;7333986;19;154008;-18
2022/06/29 12:12:17;;;;;;;16.67;4.78;;;;;;;;;;7333741;19;153538;-18
2022/06/29 12:14:48;;;;;;;15.17;4.23;;;;;;;;;;7333341;19;162097;-17
2022/06/29 12:17:20;;;;;;;13.20;3.90;;;;;;;;;;7331797;19;162853;-17
2022/06/29 12:19:51;;;;;;;18.58;4.40;;;;;;;;;;7333714;19;154137;-18
2022/06/29 12:22:22;;;;;;;14.45;3.88;;;;;;;;;;7332932;19;153263;-15
2022/06/29 12:24:56;;;;;;;15.23;4.45;;;;;;;;;;7333767;19;161848;-16
2022/06/29 12:27:27;;;;;;;10.65;3.58;;;;;;;;;;7337206;19;162438;-16
2022/06/29 12:29:58;;;;;;;13.90;3.95;;;;;;;;;;7333204;19;154070;-16
2022/06/29 12:32:30;;;;;;;20.35;4.45;;;;;;;;;;7333221;19;153575;-16
2022/06/29 12:35:01;;;;;;;13.23;4.13;;;;;;;;;;7330343;19;162085;-16
2022/06/29 12:37:32;;;;;;;11.68;4.43;;;;;;;;;;7332679;19;162498;-16
2022/06/29 12:40:08;;;;;;;12.65;4.45;;;;;;;;;;7333267;19;154192;-16
2022/06/29 12:42:39;;;;;;;13.80;4.88;;;;;;;;;;7331136;19;153726;-17
2022/06/29 12:45:11;;;;;;;11.82;4.63;;;;;;;;;;7332818;19;161819;-17
2022/06/29 12:47:45;;;;;;;13.55;4.05;;;;;;;;;;7332711;19;162396;-17
2022/06/29 12:50:16;;;;;;;11.75;3.53;;;;;;;;;;7332957;19;154596;-17
2022/06/29 12:52:48;;;;;;;11.48;4.10;;;;;;;;;;7331740;19;153668;-17
2022/06/29 12:55:24;;;;;;;11.13;3.53;;;;;;;;;;7335004;19;161873;-17
2022/06/29 12:57:55;;;;;;;8.23;3.28;;;;;;;;;;7332464;19;162523;-17
2022/06/29 13:00:27;;;;;;;10.02;3.38;;;;;;;;;;7331611;19;154008;-17
2022/06/29 13:02:58;;;;;;;12.73;3.87;;;;;;;;;;7330324;19;153647;-17
2022/06/29 13:05:29;;;;;;;9.90;3.35;;;;;;;;;;7331979;19;161880;-17
2022/06/29 13:08:01;;;;;;;11.57;3.53;;;;;;;;;;7331949;19;162311;-17
2022/06/29 13:10:34;;;;;;;14.45;3.63;;;;;;;;;;7332401;19;154193;-17
2022/06/29 13:13:06;;;;;;;14.15;4.03;;;;;;;;;;7331868;19;153575;-17
2022/06/29 13:15:37;;;;;;;11.65;3.25;;;;;;;;;;7331423;19;161908;-17
2022/06/29 13:18:08;;;;;;;8.88;3.03;;;;;;;;;;7329919;19;162424;-17
2022/06/29 13:20:40;;;;;;;7.85;3.53;;;;;;;;;;7332344;19;154058;-17
2022/06/29 13:23:13;;;;;;;8.95;2.78;;;;;;;;;;7331247;19;153613;-17
2022/06/29 13:25:48;;;;;;;7.78;3.10;;;;;;;;;;7335066;19;161982;-17
2022/06/29 13:28:19;;;;;;;9.00;3.33;;;;;;;;;;7331175;19;162485;-17
2022/06/29 13:30:50;;;;;;;15.18;4.00;;;;;;;;;;7331959;19;154024;-17
2022/06/29 13:33:21;;;;;;;12.93;3.92;;;;;;;;;;7332939;19;153907;-17
2022/06/29 13:35:53;;;;;;;10.18;3.13;;;;;;;;;;7333509;19;161900;-17
2022/06/29 13:38:24;;;;;;;11.57;3.47;;;;;;;;;;7333996;19;162502;-17
2022/06/29 13:40:58;;;;;;;9.35;2.90;;;;;;;;;;7334462;19;154175;-17
2022/06/29 13:43:29;;;;;;;10.02;2.92;;;;;;;;;;7333465;19;153542;-15
2022/06/29 13:46:01;;;;;;;6.07;2.78;;;;;;;;;;7333612;19;161832;-15
2022/06/29 13:48:32;;;;;;;11.65;3.25;;;;;;;;;;7333743;19;162378;-16
2022/06/29 13:51:03;;;;;;;9.43;3.00;;;;;;;;;;7333732;19;154011;-14
2022/06/29 13:53:35;;;;;;;7.72;3.00;;;;;;;;;;7333410;19;153701;-17
2022/06/29 13:56:09;;;;;;;6.70;3.13;;;;;;;;;;7333578;19;161971;-17
2022/06/29 13:58:40;;;;;;;9.75;2.80;;;;;;;;;;7333158;19;162446;-14
2022/06/29 14:01:12;;;;;;;7.22;3.05;;;;;;;;;;7333457;19;154097;-15
2022/06/29 14:03:46;;;;;;;8.00;3.33;;;;;;;;;;7332318;19;153595;-15
2022/06/29 14:06:18;;;;;;;9.57;3.63;;;;;;;;;;7333717;19;162045;-15
2022/06/29 14:08:49;;;;;;;8.95;3.33;;;;;;;;;;7333588;19;162994;-15
2022/06/29 14:11:42;;;;;;;7.45;2.85;;;;;;;;;;7334036;19;154035;-15
2022/06/29 14:14:13;;;;;;;5.72;3.03;;;;;;;;;;7333886;19;153545;-16
2022/06/29 14:16:44;;;;;;;6.55;2.75;;;;;;;;;;7332591;19;161946;-17
2022/06/29 14:19:16;;;;;;;9.38;2.92;;;;;;;;;;7331342;19;162557;-20
2022/06/29 14:21:47;;;;;;;8.70;2.97;;;;;;;;;;7332606;19;153976;-15
2022/06/29 14:24:19;;;;;;;6.80;2.50;;;;;;;;;;7330289;19;153585;-15
2022/06/29 14:26:53;;;;;;;4.53;2.53;;;;;;;;;;7331797;19;162054;-15
2022/06/29 14:29:24;;;;;;;6.13;2.90;;;;;;;;;;7331316;19;162431;-15
2022/06/29 14:31:56;;;;;;;8.98;3.17;;;;;;;;;;7333114;19;154055;-15
2022/06/29 14:34:39;;;;;;;5.05;2.83;;;;;;;;;;7329052;19;153807;-15
2022/06/29 14:37:10;;;;;;;7.25;3.00;;;;;;;;;;7331927;19;162315;-15
2022/06/29 14:39:42;;;;;;;5.63;2.45;;;;;;;;;;7330854;19;162403;-15
2022/06/29 14:42:16;;;;;;;7.93;3.05;;;;;;;;;;7329343;19;153975;-15
2022/06/29 14:44:47;;;;;;;10.93;2.90;;;;;;;;;;7329836;19;153499;-15
2022/06/29 14:47:18;;;;;;;8.07;2.85;;;;;;;;;;7329945;19;161775;-15
2022/06/29 14:49:50;;;;;;;6.82;2.92;;;;;;;;;;7330070;19;162590;-16
2022/06/29 14:52:22;;;;;;;5.18;3.03;;;;;;;;;;7329853;19;154224;-15
2022/06/29 14:54:54;;;;;;;6.32;3.10;;;;;;;;;;7330649;19;153538;-15
2022/06/29 14:57:29;;;;;;;5.60;2.60;;;;;;;;;;7326841;19;161948;-15
2022/06/29 15:00:01;;;;;;;5.97;2.65;;;;;;;;;;7328636;19;162372;-16
2022/06/29 15:02:32;;;;;;;3.92;2.45;;;;;;;;;;7326951;19;154225;-15
2022/06/29 15:05:03;;;;;;;7.32;2.95;;;;;;;;;;7326010;19;153803;-18
2022/06/29 15:07:35;;;;;;;7.18;3.03;;;;;;;;;;7329758;19;161929;-16
2022/06/29 15:10:07;;;;;;;4.10;2.20;;;;;;;;;;7329557;19;162362;-16
2022/06/29 15:12:41;;;;;;;5.05;2.47;;;;;;;;;;7328537;19;153942;-16
2022/06/29 15:15:13;;;;;;;4.68;2.40;;;;;;;;;;7329400;19;153529;-16
2022/06/29 15:17:44;;;;;;;7.30;3.00;;;;;;;;;;7328527;19;161858;-16
2022/06/29 15:20:15;;;;;;;4.55;2.58;;;;;;;;;;7330626;19;164269;-16
2022/06/29 15:22:47;;;;;;;3.70;2.42;;;;;;;;;;7325368;19;154426;-15
2022/06/29 15:25:18;;;;;;;9.98;3.00;;;;;;;;;;7328452;19;153542;-17
2022/06/29 15:27:52;;;;;;;5.43;2.40;;;;;;;;;;7325572;19;162153;-16
2022/06/29 15:30:23;;;;;;;8.15;2.75;;;;;;;;;;7325766;19;162123;-16
2022/06/29 15:32:54;;;;;;;7.80;2.92;;;;;;;;;;7328703;19;154116;-16